sensor_id;sensor_type;location;lat;lon;timestamp;pressure;altitude;pressure_sealevel;temperature;humidity
54628;BME280;40525;55.926;21.066;2024-01-30T00:01:09;102919.98;;;2.72;100.00
54628;BME280;40525;55.926;21.066;2024-01-30T00:03:37;102917.24;;;2.74;100.00
54628;BME280;40525;55.926;21.066;2024-01-30T00:06:04;102914.30;;;2.74;100.00
54628;BME280;40525;55.926;21.066;2024-01-30T00:08:31;102909.60;;;2.74;100.00
54628;BME280;40525;55.926;21.066;2024-01-30T00:10:58;102910.47;;;2.73;100.00
54628;BME280;40525;55.926;21.066;2024-01-30T00:13:25;102902.81;;;2.73;100.00
54628;BME280;40525;55.926;21.066;2024-01-30T00:15:53;102898.84;;;2.74;100.00
54628;BME280;40525;55.926;21.066;2024-01-30T00:18:20;102902.18;;;2.76;100.00
54628;BME280;40525;55.926;21.066;2024-01-30T00:20:48;102896.79;;;2.76;100.00
54628;BME280;40525;55.926;21.066;2024-01-30T00:23:15;102895.45;;;2.78;100.00
54628;BME280;40525;55.926;21.066;2024-01-30T00:25:42;102888.75;;;2.81;100.00
54628;BME280;40525;55.926;21.066;2024-01-30T00:28:09;102892.26;;;2.83;100.00
54628;BME280;40525;55.926;21.066;2024-01-30T00:30:36;102891.55;;;2.82;100.00
54628;BME280;40525;55.926;21.066;2024-01-30T00:33:03;102887.58;;;2.83;100.00
54628;BME280;40525;55.926;21.066;2024-01-30T00:35:30;102887.68;;;2.80;100.00
54628;BME280;40525;55.926;21.066;2024-01-30T00:37:58;102884.91;;;2.81;100.00
54628;BME280;40525;55.926;21.066;2024-01-30T00:40:25;102882.15;;;2.81;100.00
54628;BME280;40525;55.926;21.066;2024-01-30T00:42:53;102880.18;;;2.79;100.00
54628;BME280;40525;55.926;21.066;2024-01-30T00:45:20;102881.60;;;2.80;100.00
54628;BME280;40525;55.926;21.066;2024-01-30T00:47:47;102878.35;;;2.82;100.00
54628;BME280;40525;55.926;21.066;2024-01-30T00:50:14;102880.32;;;2.85;100.00
54628;BME280;40525;55.926;21.066;2024-01-30T00:52:41;102878.44;;;2.87;100.00
54628;BME280;40525;55.926;21.066;2024-01-30T00:55:12;102881.13;;;2.83;100.00
54628;BME280;40525;55.926;21.066;2024-01-30T00:57:40;102881.77;;;2.80;100.00
54628;BME280;40525;55.926;21.066;2024-01-30T01:00:11;102885.51;;;2.76;100.00
54628;BME280;40525;55.926;21.066;2024-01-30T01:02:39;102885.98;;;2.73;100.00
54628;BME280;40525;55.926;21.066;2024-01-30T01:05:07;102880.90;;;2.71;100.00
54628;BME280;40525;55.926;21.066;2024-01-30T01:07:35;102872.78;;;2.74;100.00
54628;BME280;40525;55.926;21.066;2024-01-30T01:10:06;102878.41;;;2.78;100.00
54628;BME280;40525;55.926;21.066;2024-01-30T01:12:33;102877.98;;;2.81;100.00
54628;BME280;40525;55.926;21.066;2024-01-30T01:15:00;102875.59;;;2.84;100.00
54628;BME280;40525;55.926;21.066;2024-01-30T01:17:27;102869.19;;;2.84;100.00
54628;BME280;40525;55.926;21.066;2024-01-30T01:19:54;102869.55;;;2.85;100.00
54628;BME280;40525;55.926;21.066;2024-01-30T01:22:24;102871.08;;;2.83;100.00
54628;BME280;40525;55.926;21.066;2024-01-30T01:24:51;102862.01;;;2.82;100.00
54628;BME280;40525;55.926;21.066;2024-01-30T01:27:18;102860.09;;;2.81;100.00
54628;BME280;40525;55.926;21.066;2024-01-30T01:29:45;102854.43;;;2.77;100.00
54628;BME280;40525;55.926;21.066;2024-01-30T01:32:12;102852.85;;;2.76;100.00
54628;BME280;40525;55.926;21.066;2024-01-30T01:34:39;102856.61;;;2.73;100.00
54628;BME280;40525;55.926;21.066;2024-01-30T01:37:06;102855.26;;;2.74;100.00
54628;BME280;40525;55.926;21.066;2024-01-30T01:39:34;102851.25;;;2.74;100.00
54628;BME280;40525;55.926;21.066;2024-01-30T01:42:01;102851.72;;;2.71;100.00
54628;BME280;40525;55.926;21.066;2024-01-30T01:44:28;102849.42;;;2.69;100.00
54628;BME280;40525;55.926;21.066;2024-01-30T01:46:56;102852.89;;;2.69;100.00
54628;BME280;40525;55.926;21.066;2024-01-30T01:49:25;102852.36;;;2.68;100.00
54628;BME280;40525;55.926;21.066;2024-01-30T01:51:55;102847.48;;;2.68;100.00
54628;BME280;40525;55.926;21.066;2024-01-30T01:54:26;102847.99;;;2.68;100.00
54628;BME280;40525;55.926;21.066;2024-01-30T01:56:55;102850.73;;;2.66;100.00
54628;BME280;40525;55.926;21.066;2024-01-30T01:59:23;102851.05;;;2.65;100.00
54628;BME280;40525;55.926;21.066;2024-01-30T02:01:54;102854.86;;;2.64;100.00
54628;BME280;40525;55.926;21.066;2024-01-30T02:04:22;102856.02;;;2.62;100.00
54628;BME280;40525;55.926;21.066;2024-01-30T02:06:49;102854.77;;;2.60;100.00
54628;BME280;40525;55.926;21.066;2024-01-30T02:09:17;102851.45;;;2.59;100.00
54628;BME280;40525;55.926;21.066;2024-01-30T02:11:44;102848.90;;;2.62;100.00
54628;BME280;40525;55.926;21.066;2024-01-30T02:14:11;102853.05;;;2.61;100.00
54628;BME280;40525;55.926;21.066;2024-01-30T02:16:38;102853.16;;;2.58;100.00
54628;BME280;40525;55.926;21.066;2024-01-30T02:19:05;102848.92;;;2.55;100.00
54628;BME280;40525;55.926;21.066;2024-01-30T02:21:33;102848.46;;;2.49;100.00
54628;BME280;40525;55.926;21.066;2024-01-30T02:24:01;102844.58;;;2.47;100.00
54628;BME280;40525;55.926;21.066;2024-01-30T02:26:29;102841.02;;;2.43;99.96
54628;BME280;40525;55.926;21.066;2024-01-30T02:28:56;102839.78;;;2.42;100.00
54628;BME280;40525;55.926;21.066;2024-01-30T02:31:25;102840.27;;;2.41;100.00
54628;BME280;40525;55.926;21.066;2024-01-30T02:33:52;102841.54;;;2.43;100.00
54628;BME280;40525;55.926;21.066;2024-01-30T02:36:19;102838.02;;;2.41;100.00
54628;BME280;40525;55.926;21.066;2024-01-30T02:38:46;102830.13;;;2.37;99.96
54628;BME280;40525;55.926;21.066;2024-01-30T02:41:14;102832.64;;;2.32;99.95
54628;BME280;40525;55.926;21.066;2024-01-30T02:43:41;102827.16;;;2.28;99.96
54628;BME280;40525;55.926;21.066;2024-01-30T02:46:08;102828.65;;;2.25;99.74
54628;BME280;40525;55.926;21.066;2024-01-30T02:48:35;102823.23;;;2.24;99.78
54628;BME280;40525;55.926;21.066;2024-01-30T02:51:02;102829.61;;;2.21;99.58
54628;BME280;40525;55.926;21.066;2024-01-30T02:53:29;102829.89;;;2.19;99.84
54628;BME280;40525;55.926;21.066;2024-01-30T02:55:56;102830.40;;;2.18;100.00
54628;BME280;40525;55.926;21.066;2024-01-30T02:58:24;102832.91;;;2.21;100.00
54628;BME280;40525;55.926;21.066;2024-01-30T03:00:51;102828.42;;;2.22;100.00
54628;BME280;40525;55.926;21.066;2024-01-30T03:03:18;102826.13;;;2.21;100.00
54628;BME280;40525;55.926;21.066;2024-01-30T03:05:45;102826.63;;;2.20;100.00
54628;BME280;40525;55.926;21.066;2024-01-30T03:08:13;102825.09;;;2.21;100.00
54628;BME280;40525;55.926;21.066;2024-01-30T03:10:40;102822.83;;;2.21;100.00
54628;BME280;40525;55.926;21.066;2024-01-30T03:13:07;102820.02;;;2.19;100.00
54628;BME280;40525;55.926;21.066;2024-01-30T03:15:34;102817.90;;;2.18;100.00
54628;BME280;40525;55.926;21.066;2024-01-30T03:18:02;102815.42;;;2.16;100.00
54628;BME280;40525;55.926;21.066;2024-01-30T03:20:30;102815.73;;;2.14;100.00
54628;BME280;40525;55.926;21.066;2024-01-30T03:23:00;102811.64;;;2.09;100.00
54628;BME280;40525;55.926;21.066;2024-01-30T03:25:27;102810.78;;;2.10;100.00
54628;BME280;40525;55.926;21.066;2024-01-30T03:27:54;102806.61;;;2.10;100.00
54628;BME280;40525;55.926;21.066;2024-01-30T03:30:22;102803.81;;;2.09;100.00
54628;BME280;40525;55.926;21.066;2024-01-30T03:32:49;102806.52;;;2.13;100.00
54628;BME280;40525;55.926;21.066;2024-01-30T03:35:18;102797.20;;;2.16;100.00
54628;BME280;40525;55.926;21.066;2024-01-30T03:37:46;102794.11;;;2.18;100.00
54628;BME280;40525;55.926;21.066;2024-01-30T03:40:13;102792.20;;;2.17;100.00
54628;BME280;40525;55.926;21.066;2024-01-30T03:42:40;102794.77;;;2.16;100.00
54628;BME280;40525;55.926;21.066;2024-01-30T03:45:08;102796.17;;;2.17;100.00
54628;BME280;40525;55.926;21.066;2024-01-30T03:47:35;102802.42;;;2.17;100.00
54628;BME280;40525;55.926;21.066;2024-01-30T03:50:03;102808.00;;;2.18;100.00
54628;BME280;40525;55.926;21.066;2024-01-30T03:52:31;102810.95;;;2.18;100.00
54628;BME280;40525;55.926;21.066;2024-01-30T03:54:58;102813.05;;;2.19;100.00
54628;BME280;40525;55.926;21.066;2024-01-30T03:57:26;102816.73;;;2.20;100.00
54628;BME280;40525;55.926;21.066;2024-01-30T03:59:53;102813.95;;;2.20;100.00
54628;BME280;40525;55.926;21.066;2024-01-30T04:02:20;102817.96;;;2.21;100.00
54628;BME280;40525;55.926;21.066;2024-01-30T04:04:47;102812.35;;;2.19;100.00
54628;BME280;40525;55.926;21.066;2024-01-30T04:07:15;102811.15;;;2.19;100.00
54628;BME280;40525;55.926;21.066;2024-01-30T04:09:42;102817.52;;;2.17;100.00
54628;BME280;40525;55.926;21.066;2024-01-30T04:12:09;102821.39;;;2.19;100.00
54628;BME280;40525;55.926;21.066;2024-01-30T04:14:38;102823.93;;;2.24;100.00
54628;BME280;40525;55.926;21.066;2024-01-30T04:17:05;102821.89;;;2.26;100.00
54628;BME280;40525;55.926;21.066;2024-01-30T04:19:32;102822.42;;;2.26;100.00
54628;BME280;40525;55.926;21.066;2024-01-30T04:21:59;102826.59;;;2.26;100.00
54628;BME280;40525;55.926;21.066;2024-01-30T04:24:26;102817.27;;;2.21;100.00
54628;BME280;40525;55.926;21.066;2024-01-30T04:26:53;102814.45;;;2.19;100.00
54628;BME280;40525;55.926;21.066;2024-01-30T04:29:20;102806.42;;;2.17;100.00
54628;BME280;40525;55.926;21.066;2024-01-30T04:31:49;102809.81;;;2.13;100.00
54628;BME280;40525;55.926;21.066;2024-01-30T04:34:16;102803.39;;;2.13;100.00
54628;BME280;40525;55.926;21.066;2024-01-30T04:36:44;102803.08;;;2.15;100.00
54628;BME280;40525;55.926;21.066;2024-01-30T04:39:12;102803.98;;;2.16;100.00
54628;BME280;40525;55.926;21.066;2024-01-30T04:41:39;102803.98;;;2.16;100.00
54628;BME280;40525;55.926;21.066;2024-01-30T04:44:06;102800.54;;;2.18;100.00
54628;BME280;40525;55.926;21.066;2024-01-30T04:46:33;102803.90;;;2.21;100.00
54628;BME280;40525;55.926;21.066;2024-01-30T04:49:03;102804.85;;;2.24;100.00
54628;BME280;40525;55.926;21.066;2024-01-30T04:51:30;102800.95;;;2.28;100.00
54628;BME280;40525;55.926;21.066;2024-01-30T04:53:57;102794.92;;;2.31;100.00
54628;BME280;40525;55.926;21.066;2024-01-30T04:56:25;102792.55;;;2.32;100.00
54628;BME280;40525;55.926;21.066;2024-01-30T04:58:52;102789.98;;;2.35;100.00
54628;BME280;40525;55.926;21.066;2024-01-30T05:01:19;102790.85;;;2.34;100.00
54628;BME280;40525;55.926;21.066;2024-01-30T05:03:46;102788.77;;;2.34;100.00
54628;BME280;40525;55.926;21.066;2024-01-30T05:06:24;102780.30;;;2.36;100.00
54628;BME280;40525;55.926;21.066;2024-01-30T05:08:53;102785.71;;;2.38;100.00
54628;BME280;40525;55.926;21.066;2024-01-30T05:11:21;102786.82;;;2.40;100.00
54628;BME280;40525;55.926;21.066;2024-01-30T05:13:48;102791.25;;;2.45;100.00
54628;BME280;40525;55.926;21.066;2024-01-30T05:16:15;102792.36;;;2.48;100.00
54628;BME280;40525;55.926;21.066;2024-01-30T05:18:42;102786.02;;;2.52;100.00
54628;BME280;40525;55.926;21.066;2024-01-30T05:21:10;102787.48;;;2.55;100.00
54628;BME280;40525;55.926;21.066;2024-01-30T05:23:37;102787.48;;;2.55;100.00
54628;BME280;40525;55.926;21.066;2024-01-30T05:26:04;102790.95;;;2.56;100.00
54628;BME280;40525;55.926;21.066;2024-01-30T05:28:32;102797.80;;;2.59;100.00
54628;BME280;40525;55.926;21.066;2024-01-30T05:30:59;102799.05;;;2.61;100.00
54628;BME280;40525;55.926;21.066;2024-01-30T05:33:26;102802.77;;;2.64;100.00
54628;BME280;40525;55.926;21.066;2024-01-30T05:35:54;102805.61;;;2.67;100.00
54628;BME280;40525;55.926;21.066;2024-01-30T05:38:21;102813.18;;;2.72;100.00
54628;BME280;40525;55.926;21.066;2024-01-30T05:40:48;102815.50;;;2.75;100.00
54628;BME280;40525;55.926;21.066;2024-01-30T05:43:15;102807.17;;;2.76;100.00
54628;BME280;40525;55.926;21.066;2024-01-30T05:45:42;102807.54;;;2.77;100.00
54628;BME280;40525;55.926;21.066;2024-01-30T05:48:09;102808.61;;;2.78;100.00
54628;BME280;40525;55.926;21.066;2024-01-30T05:50:37;102804.92;;;2.77;100.00
54628;BME280;40525;55.926;21.066;2024-01-30T05:53:04;102808.61;;;2.78;100.00
54628;BME280;40525;55.926;21.066;2024-01-30T05:55:31;102804.33;;;2.81;100.00
54628;BME280;40525;55.926;21.066;2024-01-30T05:57:58;102806.71;;;2.87;100.00
54628;BME280;40525;55.926;21.066;2024-01-30T06:00:25;102808.77;;;2.94;100.00
54628;BME280;40525;55.926;21.066;2024-01-30T06:02:52;102809.52;;;2.98;100.00
54628;BME280;40525;55.926;21.066;2024-01-30T06:05:19;102810.56;;;2.98;100.00
54628;BME280;40525;55.926;21.066;2024-01-30T06:07:47;102803.36;;;2.93;100.00
54628;BME280;40525;55.926;21.066;2024-01-30T06:10:14;102793.58;;;2.90;100.00
54628;BME280;40525;55.926;21.066;2024-01-30T06:12:41;102798.72;;;2.87;100.00
54628;BME280;40525;55.926;21.066;2024-01-30T06:15:08;102793.95;;;2.83;100.00
54628;BME280;40525;55.926;21.066;2024-01-30T06:17:36;102800.51;;;2.81;100.00
54628;BME280;40525;55.926;21.066;2024-01-30T06:20:03;102803.80;;;2.81;100.00
54628;BME280;40525;55.926;21.066;2024-01-30T06:22:30;102805.19;;;2.72;100.00
54628;BME280;40525;55.926;21.066;2024-01-30T06:24:58;102805.61;;;2.67;100.00
54628;BME280;40525;55.926;21.066;2024-01-30T06:27:25;102797.97;;;2.59;100.00
54628;BME280;40525;55.926;21.066;2024-01-30T06:29:52;102794.58;;;2.55;100.00
54628;BME280;40525;55.926;21.066;2024-01-30T06:32:19;102788.74;;;2.49;100.00
54628;BME280;40525;55.926;21.066;2024-01-30T06:34:46;102788.40;;;2.42;100.00
54628;BME280;40525;55.926;21.066;2024-01-30T06:37:13;102794.03;;;2.38;100.00
54628;BME280;40525;55.926;21.066;2024-01-30T06:39:40;102792.42;;;2.35;100.00
54628;BME280;40525;55.926;21.066;2024-01-30T06:42:07;102802.23;;;2.31;100.00
54628;BME280;40525;55.926;21.066;2024-01-30T06:44:34;102805.48;;;2.29;100.00
54628;BME280;40525;55.926;21.066;2024-01-30T06:47:02;102801.27;;;2.26;100.00
54628;BME280;40525;55.926;21.066;2024-01-30T06:49:29;102810.08;;;2.25;100.00
54628;BME280;40525;55.926;21.066;2024-01-30T06:51:56;102804.00;;;2.17;100.00
54628;BME280;40525;55.926;21.066;2024-01-30T06:54:23;102798.06;;;2.16;100.00
54628;BME280;40525;55.926;21.066;2024-01-30T06:56:50;102792.66;;;2.14;100.00
54628;BME280;40525;55.926;21.066;2024-01-30T06:59:17;102795.91;;;2.12;100.00
54628;BME280;40525;55.926;21.066;2024-01-30T07:01:45;102803.95;;;2.14;100.00
54628;BME280;40525;55.926;21.066;2024-01-30T07:04:12;102808.20;;;2.19;100.00
54628;BME280;40525;55.926;21.066;2024-01-30T07:06:40;102804.11;;;2.22;100.00
54628;BME280;40525;55.926;21.066;2024-01-30T07:09:08;102804.89;;;2.25;100.00
54628;BME280;40525;55.926;21.066;2024-01-30T07:11:38;102800.90;;;2.26;100.00
54628;BME280;40525;55.926;21.066;2024-01-30T07:14:05;102806.52;;;2.29;100.00
54628;BME280;40525;55.926;21.066;2024-01-30T07:16:32;102806.66;;;2.35;100.00
54628;BME280;40525;55.926;21.066;2024-01-30T07:18:59;102799.59;;;2.38;100.00
54628;BME280;40525;55.926;21.066;2024-01-30T07:21:26;102797.56;;;2.41;100.00
54628;BME280;40525;55.926;21.066;2024-01-30T07:23:55;102797.45;;;2.43;100.00
54628;BME280;40525;55.926;21.066;2024-01-30T07:26:23;102800.75;;;2.43;100.00
54628;BME280;40525;55.926;21.066;2024-01-30T07:28:50;102799.00;;;2.43;100.00
54628;BME280;40525;55.926;21.066;2024-01-30T07:31:18;102801.79;;;2.43;100.00
54628;BME280;40525;55.926;21.066;2024-01-30T07:33:47;102801.63;;;2.44;100.00
54628;BME280;40525;55.926;21.066;2024-01-30T07:36:15;102799.22;;;2.44;100.00
54628;BME280;40525;55.926;21.066;2024-01-30T07:38:42;102800.47;;;2.46;100.00
54628;BME280;40525;55.926;21.066;2024-01-30T07:41:09;102797.86;;;2.46;100.00
54628;BME280;40525;55.926;21.066;2024-01-30T07:43:38;102794.27;;;2.48;100.00
54628;BME280;40525;55.926;21.066;2024-01-30T07:46:05;102788.94;;;2.51;100.00
54628;BME280;40525;55.926;21.066;2024-01-30T07:48:33;102783.80;;;2.54;100.00
54628;BME280;40525;55.926;21.066;2024-01-30T07:51:00;102783.85;;;2.57;100.00
54628;BME280;40525;55.926;21.066;2024-01-30T07:53:29;102780.73;;;2.57;100.00
54628;BME280;40525;55.926;21.066;2024-01-30T07:55:57;102782.61;;;2.55;100.00
54628;BME280;40525;55.926;21.066;2024-01-30T07:58:24;102784.34;;;2.54;100.00
54628;BME280;40525;55.926;21.066;2024-01-30T08:00:54;102779.63;;;2.54;100.00
54628;BME280;40525;55.926;21.066;2024-01-30T08:03:25;102782.45;;;2.57;100.00
54628;BME280;40525;55.926;21.066;2024-01-30T08:05:52;102774.05;;;2.61;100.00
54628;BME280;40525;55.926;21.066;2024-01-30T08:08:20;102769.23;;;2.63;100.00
54628;BME280;40525;55.926;21.066;2024-01-30T08:10:47;102770.78;;;2.63;100.00
54628;BME280;40525;55.926;21.066;2024-01-30T08:13:16;102770.91;;;2.60;100.00
54628;BME280;40525;55.926;21.066;2024-01-30T08:15:43;102774.30;;;2.56;100.00
54628;BME280;40525;55.926;21.066;2024-01-30T08:18:10;102775.54;;;2.49;100.00
54628;BME280;40525;55.926;21.066;2024-01-30T08:20:37;102780.01;;;2.47;100.00
54628;BME280;40525;55.926;21.066;2024-01-30T08:23:04;102777.90;;;2.45;100.00
54628;BME280;40525;55.926;21.066;2024-01-30T08:25:31;102778.03;;;2.44;100.00
54628;BME280;40525;55.926;21.066;2024-01-30T08:27:58;102779.12;;;2.46;100.00
54628;BME280;40525;55.926;21.066;2024-01-30T08:30:27;102780.60;;;2.50;100.00
54628;BME280;40525;55.926;21.066;2024-01-30T08:32:54;102786.45;;;2.56;100.00
54628;BME280;40525;55.926;21.066;2024-01-30T08:35:21;102787.56;;;2.59;100.00
54628;BME280;40525;55.926;21.066;2024-01-30T08:37:49;102793.50;;;2.61;100.00
54628;BME280;40525;55.926;21.066;2024-01-30T08:40:16;102797.05;;;2.64;100.00
54628;BME280;40525;55.926;21.066;2024-01-30T08:42:43;102797.46;;;2.68;100.00
54628;BME280;40525;55.926;21.066;2024-01-30T08:45:10;102799.23;;;2.70;100.00
54628;BME280;40525;55.926;21.066;2024-01-30T08:47:37;102797.92;;;2.74;100.00
54628;BME280;40525;55.926;21.066;2024-01-30T08:50:05;102801.43;;;2.84;100.00
54628;BME280;40525;55.926;21.066;2024-01-30T08:52:32;102797.70;;;2.88;100.00
54628;BME280;40525;55.926;21.066;2024-01-30T08:55:00;102798.77;;;2.90;100.00
54628;BME280;40525;55.926;21.066;2024-01-30T08:57:28;102801.96;;;2.93;100.00
54628;BME280;40525;55.926;21.066;2024-01-30T08:59:55;102799.92;;;2.95;100.00
54628;BME280;40525;55.926;21.066;2024-01-30T09:02:23;102806.78;;;3.00;100.00
54628;BME280;40525;55.926;21.066;2024-01-30T09:04:50;102806.20;;;3.05;100.00
54628;BME280;40525;55.926;21.066;2024-01-30T09:07:17;102807.34;;;3.10;100.00
54628;BME280;40525;55.926;21.066;2024-01-30T09:09:44;102806.73;;;3.14;100.00
54628;BME280;40525;55.926;21.066;2024-01-30T09:12:12;102801.48;;;3.22;100.00
54628;BME280;40525;55.926;21.066;2024-01-30T09:14:39;102797.35;;;3.25;100.00
54628;BME280;40525;55.926;21.066;2024-01-30T09:17:08;102798.29;;;3.28;100.00
54628;BME280;40525;55.926;21.066;2024-01-30T09:19:35;102795.08;;;3.33;100.00
54628;BME280;40525;55.926;21.066;2024-01-30T09:22:03;102794.73;;;3.33;100.00
54628;BME280;40525;55.926;21.066;2024-01-30T09:24:31;102794.74;;;3.35;100.00
54628;BME280;40525;55.926;21.066;2024-01-30T09:26:58;102794.68;;;3.40;100.00
54628;BME280;40525;55.926;21.066;2024-01-30T09:29:25;102799.55;;;3.50;100.00
54628;BME280;40525;55.926;21.066;2024-01-30T09:31:53;102797.46;;;3.61;100.00
54628;BME280;40525;55.926;21.066;2024-01-30T09:34:21;102791.81;;;3.66;100.00
54628;BME280;40525;55.926;21.066;2024-01-30T09:36:48;102798.94;;;3.77;100.00
54628;BME280;40525;55.926;21.066;2024-01-30T09:39:15;102797.36;;;3.86;100.00
54628;BME280;40525;55.926;21.066;2024-01-30T09:44:43;102791.73;;;4.06;100.00
54628;BME280;40525;55.926;21.066;2024-01-30T09:47:11;102791.61;;;4.20;100.00
54628;BME280;40525;55.926;21.066;2024-01-30T09:49:38;102789.11;;;4.28;100.00
54628;BME280;40525;55.926;21.066;2024-01-30T09:52:08;102789.37;;;4.34;100.00
54628;BME280;40525;55.926;21.066;2024-01-30T09:54:36;102788.54;;;4.38;100.00
54628;BME280;40525;55.926;21.066;2024-01-30T09:57:04;102791.86;;;4.38;100.00
54628;BME280;40525;55.926;21.066;2024-01-30T09:59:31;102789.03;;;4.36;100.00
54628;BME280;40525;55.926;21.066;2024-01-30T10:01:59;102788.04;;;4.39;100.00
54628;BME280;40525;55.926;21.066;2024-01-30T10:04:26;102788.73;;;4.39;100.00
54628;BME280;40525;55.926;21.066;2024-01-30T10:06:53;102789.61;;;4.39;100.00
54628;BME280;40525;55.926;21.066;2024-01-30T10:09:21;102792.45;;;4.44;100.00
54628;BME280;40525;55.926;21.066;2024-01-30T10:11:48;102797.10;;;4.52;100.00
54628;BME280;40525;55.926;21.066;2024-01-30T10:14:16;102796.38;;;4.50;100.00
54628;BME280;40525;55.926;21.066;2024-01-30T10:16:43;102789.54;;;4.46;100.00
54628;BME280;40525;55.926;21.066;2024-01-30T10:19:12;102793.54;;;4.46;100.00
54628;BME280;40525;55.926;21.066;2024-01-30T10:21:39;102799.56;;;4.42;100.00
54628;BME280;40525;55.926;21.066;2024-01-30T10:24:07;102794.16;;;4.41;100.00
54628;BME280;40525;55.926;21.066;2024-01-30T10:26:34;102792.40;;;4.40;100.00
54628;BME280;40525;55.926;21.066;2024-01-30T10:29:01;102786.66;;;4.41;100.00
54628;BME280;40525;55.926;21.066;2024-01-30T10:31:29;102783.28;;;4.48;100.00
54628;BME280;40525;55.926;21.066;2024-01-30T10:33:57;102783.19;;;4.55;100.00
54628;BME280;40525;55.926;21.066;2024-01-30T10:36:41;102778.00;;;4.58;100.00
54628;BME280;40525;55.926;21.066;2024-01-30T10:39:11;102775.58;;;4.58;100.00
54628;BME280;40525;55.926;21.066;2024-01-30T10:41:44;102777.39;;;4.50;100.00
54628;BME280;40525;55.926;21.066;2024-01-30T10:44:19;102766.00;;;4.45;100.00
54628;BME280;40525;55.926;21.066;2024-01-30T10:46:52;102766.52;;;4.46;100.00
54628;BME280;40525;55.926;21.066;2024-01-30T10:49:24;102768.13;;;4.48;100.00
54628;BME280;40525;55.926;21.066;2024-01-30T10:51:52;102768.30;;;4.47;100.00
54628;BME280;40525;55.926;21.066;2024-01-30T10:54:19;102767.95;;;4.47;100.00
54628;BME280;40525;55.926;21.066;2024-01-30T10:56:48;102766.36;;;4.46;100.00
54628;BME280;40525;55.926;21.066;2024-01-30T10:59:16;102767.88;;;4.43;100.00
54628;BME280;40525;55.926;21.066;2024-01-30T11:01:43;102769.05;;;4.38;100.00
54628;BME280;40525;55.926;21.066;2024-01-30T11:04:11;102759.40;;;4.33;100.00
54628;BME280;40525;55.926;21.066;2024-01-30T11:06:41;102764.18;;;4.39;100.00
54628;BME280;40525;55.926;21.066;2024-01-30T11:09:12;102757.61;;;4.43;100.00
54628;BME280;40525;55.926;21.066;2024-01-30T11:11:58;102755.37;;;4.45;100.00
54628;BME280;40525;55.926;21.066;2024-01-30T11:14:30;102746.85;;;4.46;100.00
54628;BME280;40525;55.926;21.066;2024-01-30T11:16:58;102746.34;;;4.46;100.00
54628;BME280;40525;55.926;21.066;2024-01-30T11:19:27;102742.33;;;4.46;100.00
54628;BME280;40525;55.926;21.066;2024-01-30T11:21:55;102741.61;;;4.45;100.00
54628;BME280;40525;55.926;21.066;2024-01-30T11:24:24;102728.96;;;4.49;100.00
54628;BME280;40525;55.926;21.066;2024-01-30T11:26:59;102722.74;;;4.54;100.00
54628;BME280;40525;55.926;21.066;2024-01-30T11:29:29;102724.87;;;4.57;100.00
54628;BME280;40525;55.926;21.066;2024-01-30T11:31:58;102720.98;;;4.53;100.00
54628;BME280;40525;55.926;21.066;2024-01-30T11:34:26;102724.09;;;4.50;100.00
54628;BME280;40525;55.926;21.066;2024-01-30T11:37:03;102722.65;;;4.47;100.00
54628;BME280;40525;55.926;21.066;2024-01-30T11:39:35;102720.21;;;4.46;100.00
54628;BME280;40525;55.926;21.066;2024-01-30T11:42:06;102724.56;;;4.46;100.00
54628;BME280;40525;55.926;21.066;2024-01-30T11:44:35;102715.21;;;4.49;100.00
54628;BME280;40525;55.926;21.066;2024-01-30T11:47:03;102714.32;;;4.48;100.00
54628;BME280;40525;55.926;21.066;2024-01-30T11:49:33;102715.67;;;4.46;100.00
54628;BME280;40525;55.926;21.066;2024-01-30T11:52:01;102715.16;;;4.45;100.00
54628;BME280;40525;55.926;21.066;2024-01-30T11:54:29;102715.33;;;4.46;100.00
54628;BME280;40525;55.926;21.066;2024-01-30T11:56:57;102710.16;;;4.50;100.00
54628;BME280;40525;55.926;21.066;2024-01-30T11:59:24;102715.82;;;4.57;100.00
54628;BME280;40525;55.926;21.066;2024-01-30T12:01:52;102712.72;;;4.61;100.00
54628;BME280;40525;55.926;21.066;2024-01-30T12:04:19;102709.15;;;4.69;100.00
54628;BME280;40525;55.926;21.066;2024-01-30T12:06:51;102705.03;;;4.75;100.00
54628;BME280;40525;55.926;21.066;2024-01-30T12:09:18;102697.99;;;4.85;100.00
54628;BME280;40525;55.926;21.066;2024-01-30T12:11:46;102697.86;;;4.88;100.00
54628;BME280;40525;55.926;21.066;2024-01-30T12:14:14;102701.15;;;4.86;100.00
54628;BME280;40525;55.926;21.066;2024-01-30T12:16:42;102700.83;;;4.90;100.00
54628;BME280;40525;55.926;21.066;2024-01-30T12:19:09;102695.27;;;4.91;100.00
54628;BME280;40525;55.926;21.066;2024-01-30T12:21:38;102691.57;;;4.88;100.00
54628;BME280;40525;55.926;21.066;2024-01-30T12:24:05;102692.11;;;4.88;100.00
54628;BME280;40525;55.926;21.066;2024-01-30T12:26:34;102691.21;;;4.86;100.00
54628;BME280;40525;55.926;21.066;2024-01-30T12:29:03;102685.10;;;4.83;100.00
54628;BME280;40525;55.926;21.066;2024-01-30T12:31:32;102678.82;;;4.83;100.00
54628;BME280;40525;55.926;21.066;2024-01-30T12:34:00;102674.66;;;4.86;100.00
54628;BME280;40525;55.926;21.066;2024-01-30T12:36:28;102668.98;;;4.93;100.00
54628;BME280;40525;55.926;21.066;2024-01-30T12:38:56;102667.81;;;5.00;100.00
54628;BME280;40525;55.926;21.066;2024-01-30T12:41:25;102672.17;;;5.01;100.00
54628;BME280;40525;55.926;21.066;2024-01-30T12:43:58;102677.23;;;4.99;100.00
54628;BME280;40525;55.926;21.066;2024-01-30T12:46:29;102678.92;;;4.94;100.00